createdAt,value
2023-02-09T00:04:56.167Z,-5.79
2023-02-09T00:10:00.589Z,-6.15
2023-02-09T00:15:03.575Z,-6.13
2023-02-09T00:20:07.973Z,-5.96
2023-02-09T00:25:12.267Z,-5.96
2023-02-09T00:30:15.520Z,-5.95
2023-02-09T00:35:21.278Z,-6.07
2023-02-09T00:40:25.536Z,-6.20
2023-02-09T00:45:29.304Z,-6.17
2023-02-09T00:50:32.275Z,-6.10
2023-02-09T00:55:36.593Z,-6.19
2023-02-09T01:00:39.599Z,-6.16
2023-02-09T01:05:43.452Z,-6.12
2023-02-09T01:10:49.128Z,-6.23
2023-02-09T01:15:52.640Z,-6.25
2023-02-09T01:20:55.660Z,-6.48
2023-02-09T01:26:08.293Z,-6.38
2023-02-09T01:31:21.704Z,-6.37
2023-02-09T01:36:27.051Z,-6.38
2023-02-09T01:41:31.917Z,-6.40
2023-02-09T01:46:36.374Z,-6.30
2023-02-09T01:51:43.968Z,-6.50
2023-02-09T01:56:53.428Z,-6.51
2023-02-09T02:01:56.474Z,-6.66
2023-02-09T02:07:07.470Z,-6.41
2023-02-09T02:12:11.934Z,-6.65
2023-02-09T02:17:29.616Z,-6.53
2023-02-09T02:22:56.707Z,-6.47
2023-02-09T02:28:27.670Z,-6.52
2023-02-09T02:33:41.602Z,-6.52
2023-02-09T02:38:53.620Z,-6.74
2023-02-09T02:44:04.179Z,-6.88
2023-02-09T02:49:15.324Z,-6.67
2023-02-09T02:54:22.803Z,-6.61
2023-02-09T02:59:31.227Z,-6.71
2023-02-09T03:04:37.945Z,-6.71
2023-02-09T03:09:49.674Z,-6.70
2023-02-09T03:15:08.901Z,-6.74
2023-02-09T03:20:20.824Z,-6.73
2023-02-09T03:25:28.794Z,-6.70
2023-02-09T03:30:33.668Z,-6.81
2023-02-09T03:35:42.392Z,-6.79
2023-02-09T03:40:45.640Z,-6.93
2023-02-09T03:45:48.630Z,-6.85
2023-02-09T03:50:52.871Z,-6.80
2023-02-09T03:55:55.790Z,-6.81
2023-02-09T04:01:04.729Z,-6.94
2023-02-09T04:06:10.103Z,-6.99
2023-02-09T04:11:13.042Z,-7.14
2023-02-09T04:16:18.075Z,-7.10
2023-02-09T04:21:22.420Z,-7.24
2023-02-09T04:26:26.081Z,-7.33
2023-02-09T04:31:29.261Z,-7.50
2023-02-09T04:36:33.589Z,-7.27
2023-02-09T04:41:36.460Z,-7.19
2023-02-09T04:46:39.336Z,-7.26
2023-02-09T04:51:43.742Z,-7.28
2023-02-09T04:56:46.658Z,-7.22
2023-02-09T05:01:49.549Z,-7.35
2023-02-09T05:06:53.810Z,-7.29
2023-02-09T05:11:56.767Z,-7.46
2023-02-09T05:16:59.772Z,-7.46
2023-02-09T05:22:05.628Z,-7.42
2023-02-09T05:27:08.545Z,-7.56
2023-02-09T05:32:11.562Z,-7.31
2023-02-09T05:37:15.930Z,-7.39
2023-02-09T05:42:18.963Z,-7.45
2023-02-09T05:47:24.702Z,-7.55
2023-02-09T05:52:29.309Z,-7.50
2023-02-09T05:57:34.375Z,-7.58
2023-02-09T06:02:37.291Z,-7.63
2023-02-09T06:07:41.576Z,-7.75
2023-02-09T06:12:44.524Z,-7.68
2023-02-09T06:17:47.557Z,-7.73
2023-02-09T06:22:51.910Z,-7.64
2023-02-09T06:27:54.826Z,-7.53
2023-02-09T06:32:57.817Z,-7.59
2023-02-09T06:38:02.070Z,-7.63
2023-02-09T06:43:05.080Z,-7.68
2023-02-09T06:48:08.767Z,-7.54
2023-02-09T06:53:13.342Z,-7.69
2023-02-09T06:58:16.247Z,-7.60
2023-02-09T07:03:19.180Z,-7.58
2023-02-09T07:08:23.466Z,-7.43
2023-02-09T07:13:26.722Z,-7.34
2023-02-09T07:18:29.689Z,-7.32
2023-02-09T07:23:34.255Z,-7.17
2023-02-09T07:28:38.809Z,-7.10
2023-02-09T07:33:41.795Z,-7.08
2023-02-09T07:38:46.490Z,-7.03
2023-02-09T07:43:49.684Z,-6.73
2023-02-09T07:48:52.748Z,-6.30
2023-02-09T07:53:58.926Z,-5.90
2023-02-09T07:59:01.806Z,-5.15
2023-02-09T08:04:05.373Z,-4.58
2023-02-09T08:09:10.364Z,-4.17
2023-02-09T08:14:16.624Z,-3.99
2023-02-09T08:19:24.271Z,-3.85
2023-02-09T08:24:29.272Z,-3.30
2023-02-09T08:29:32.721Z,-2.80
2023-02-09T08:34:35.653Z,-2.77
2023-02-09T08:39:39.961Z,-2.01
2023-02-09T08:44:42.961Z,-1.78
2023-02-09T08:49:45.961Z,-1.26
2023-02-09T08:54:50.257Z,-0.97
2023-02-09T08:59:53.200Z,-0.77
2023-02-09T09:04:56.143Z,-0.16
2023-02-09T09:10:00.461Z,-0.10
2023-02-09T09:15:03.450Z,0.18
2023-02-09T09:20:07.223Z,0.46
2023-02-09T09:25:11.630Z,0.00
2023-02-09T09:30:15.182Z,0.64
2023-02-09T09:35:18.138Z,0.85
2023-02-09T09:40:26.146Z,1.12
2023-02-09T09:45:31.912Z,0.99
2023-02-09T09:50:40.211Z,0.12
2023-02-09T09:55:46.319Z,0.83
2023-02-09T10:00:51.150Z,1.39
2023-02-09T10:05:56.559Z,1.29
2023-02-09T10:11:04.805Z,1.53
2023-02-09T10:16:17.281Z,1.48
2023-02-09T10:21:20.717Z,1.56
2023-02-09T10:26:27.101Z,1.83
2023-02-09T10:31:34.993Z,2.00
2023-02-09T10:36:47.865Z,1.30
2023-02-09T10:41:54.465Z,1.58
2023-02-09T10:47:11.653Z,2.31
2023-02-09T10:52:20.453Z,1.93
2023-02-09T10:57:28.411Z,2.46
2023-02-09T11:02:38.098Z,2.80
2023-02-09T11:07:43.193Z,2.62
2023-02-09T11:12:48.199Z,2.88
2023-02-09T11:17:55.467Z,2.91
2023-02-09T11:23:21.456Z,2.69
2023-02-09T11:28:36.443Z,2.68
2023-02-09T11:33:48.461Z,2.48
2023-02-09T11:38:55.358Z,2.57
2023-02-09T11:44:03.663Z,3.02
2023-02-09T11:49:17.939Z,3.17
2023-02-09T11:54:25.676Z,3.36
2023-02-09T11:59:34.473Z,3.38
2023-02-09T12:04:45.536Z,2.90
2023-02-09T12:09:56.794Z,2.62
2023-02-09T12:15:13.447Z,3.17
2023-02-09T12:20:28.841Z,3.25
2023-02-09T12:25:51.260Z,3.41
2023-02-09T12:31:05.733Z,3.31
2023-02-09T12:36:29.055Z,3.30
2023-02-09T12:41:52.946Z,3.56
2023-02-09T12:46:58.147Z,3.66
2023-02-09T12:52:18.219Z,3.71
2023-02-09T12:57:54.305Z,3.45
2023-02-09T13:03:12.233Z,3.47
2023-02-09T13:08:22.503Z,3.65
2023-02-09T13:13:34.759Z,3.31
2023-02-09T13:18:47.342Z,3.47
2023-02-09T13:24:00.397Z,3.58
2023-02-09T13:29:20.484Z,3.57
2023-02-09T13:34:34.540Z,3.92
2023-02-09T13:39:39.664Z,3.91
2023-02-09T13:44:46.149Z,3.64
2023-02-09T13:50:01.900Z,3.73
2023-02-09T13:55:13.652Z,3.74
2023-02-09T14:00:24.779Z,3.57
2023-02-09T14:05:36.204Z,3.52
2023-02-09T14:10:41.994Z,3.55
2023-02-09T14:16:07.540Z,3.35
2023-02-09T14:21:32.364Z,2.83
2023-02-09T14:26:38.777Z,2.71
2023-02-09T14:31:44.445Z,2.61
2023-02-09T14:36:55.131Z,2.61
2023-02-09T14:42:18.173Z,2.28
2023-02-09T14:47:37.331Z,1.95
2023-02-09T14:52:46.729Z,1.74
2023-02-09T14:57:50.180Z,2.16
2023-02-09T15:02:54.285Z,2.19
2023-02-09T15:08:05.795Z,2.32
2023-02-09T15:13:12.075Z,2.32
2023-02-09T15:18:19.687Z,2.22
2023-02-09T15:23:23.969Z,1.76
2023-02-09T15:28:30.071Z,1.33
2023-02-09T15:33:33.081Z,1.30
2023-02-09T15:38:37.638Z,1.31
2023-02-09T15:43:57.906Z,1.12
2023-02-09T15:49:00.878Z,1.53
2023-02-09T15:54:08.760Z,1.33
2023-02-09T15:59:18.944Z,1.16
2023-02-09T16:04:21.839Z,1.20
2023-02-09T16:09:30.900Z,0.89
2023-02-09T16:14:33.900Z,0.58
2023-02-09T16:19:37.872Z,0.19
2023-02-09T16:24:46.025Z,0.33
2023-02-09T16:29:48.875Z,0.26
2023-02-09T16:34:52.279Z,0.16
2023-02-09T16:39:58.275Z,0.19
2023-02-09T16:45:01.950Z,0.36
2023-02-09T16:50:15.397Z,0.26
2023-02-09T16:55:26.542Z,0.20
2023-02-09T17:00:33.674Z,-0.32
2023-02-09T17:05:37.747Z,-0.33
2023-02-09T17:10:42.171Z,-0.70
2023-02-09T17:15:47.078Z,-0.60
2023-02-09T17:20:54.152Z,-0.63
2023-02-09T17:25:58.667Z,-0.62
2023-02-09T17:31:03.754Z,-0.94
2023-02-09T17:41:36.935Z,-0.52
2023-02-09T17:46:39.834Z,-0.50
2023-02-09T17:51:46.132Z,-0.70
2023-02-09T17:56:50.389Z,-0.78
2023-02-09T18:01:55.235Z,-0.70
2023-02-09T18:06:58.340Z,-0.56
2023-02-09T18:12:05.045Z,-0.25
2023-02-09T18:17:07.901Z,-0.39
2023-02-09T18:22:14.061Z,-0.49
2023-02-09T18:27:20.915Z,-0.43
2023-02-09T18:32:23.996Z,-0.72
2023-02-09T18:37:26.910Z,-0.72
2023-02-09T18:42:31.106Z,-0.70
2023-02-09T18:47:33.952Z,-0.66
2023-02-09T18:52:45.107Z,-0.63
2023-02-09T18:57:49.318Z,-0.64
2023-02-09T19:02:54.212Z,-0.96
2023-02-09T19:07:59.525Z,-0.84
2023-02-09T19:13:04.735Z,-0.84
2023-02-09T19:18:07.637Z,-0.80
2023-02-09T19:23:10.479Z,-0.65
2023-02-09T19:28:15.530Z,-0.81
2023-02-09T19:33:18.451Z,-0.88
2023-02-09T19:38:21.298Z,-0.89
2023-02-09T19:43:25.529Z,-1.11
2023-02-09T19:48:28.399Z,-1.06
2023-02-09T19:53:31.618Z,-1.06
2023-02-09T19:58:39.306Z,-0.89
2023-02-09T20:03:42.462Z,-1.15
2023-02-09T20:08:45.828Z,-1.09
2023-02-09T20:13:53.252Z,-1.14
2023-02-09T20:18:56.386Z,-1.26
2023-02-09T20:23:59.297Z,-1.41
2023-02-09T20:29:05.307Z,-1.40
2023-02-09T20:34:12.619Z,-1.59
2023-02-09T20:39:16.964Z,-1.68
2023-02-09T20:44:38.362Z,-1.67
2023-02-09T20:49:41.202Z,-1.59
2023-02-09T20:54:44.265Z,-1.72
2023-02-09T20:59:48.734Z,-1.73
2023-02-09T21:04:51.610Z,-1.92
2023-02-09T21:09:55.897Z,-1.77
2023-02-09T21:15:00.134Z,-1.74
2023-02-09T21:20:03.390Z,-1.71
2023-02-09T21:25:06.609Z,-1.79
2023-02-09T21:30:12.187Z,-1.92
2023-02-09T21:35:15.247Z,-2.03
2023-02-09T21:40:20.375Z,-1.87
2023-02-09T21:45:26.353Z,-1.87
2023-02-09T21:50:29.314Z,-1.98
2023-02-09T21:55:32.153Z,-2.15
2023-02-09T22:00:36.407Z,-2.14
2023-02-09T22:05:39.258Z,-2.07
2023-02-09T22:10:42.121Z,-1.85
2023-02-09T22:15:46.935Z,-1.76
2023-02-09T22:20:50.859Z,-1.69
2023-02-09T22:25:59.566Z,-1.51
2023-02-09T22:31:08.359Z,-1.51
2023-02-09T22:36:13.492Z,-1.30
2023-02-09T22:41:22.257Z,-1.39
2023-02-09T22:46:28.671Z,-1.36
2023-02-09T22:51:32.018Z,-1.41
2023-02-09T22:56:35.215Z,-1.43
2023-02-09T23:01:39.583Z,-1.32
2023-02-09T23:06:42.483Z,-1.35
2023-02-09T23:11:45.345Z,-1.24
2023-02-09T23:16:49.628Z,-1.35
2023-02-09T23:21:53.159Z,-1.43
2023-02-09T23:26:56.035Z,-1.45
2023-02-09T23:32:00.223Z,-1.46
2023-02-09T23:37:13.237Z,-1.62
2023-02-09T23:42:21.740Z,-1.59
2023-02-09T23:47:26.035Z,-1.52
2023-02-09T23:52:29.019Z,-1.52
2023-02-09T23:57:32.013Z,-1.54
